Time;durP1;ratioP1;P1;durP2;ratioP2;P2;SDS_P1;SDS_P2;PMS_P1;PMS_P2;Temp;Humidity;BMP_temperature;BMP_pressure;BME280_temperature;BME280_humidity;BME280_pressure;Samples;Min_cycle;Max_cycle;Signal;HPM_P1;HPM_P2
2021/12/25 00:02:21;;;;;;;2.33;2.13;;;7.70;67.70;;;7.74;51.95;94657.13;4996920;28;20471;-57
2021/12/25 00:04:48;;;;;;;3.40;2.70;;;7.80;67.50;;;7.82;51.76;94652.13;4995044;28;20443;-57
2021/12/25 00:07:15;;;;;;;1.43;1.33;;;7.80;67.50;;;7.94;52.01;94649.41;4995235;28;20911;-59
2021/12/25 00:09:43;;;;;;;1.33;1.23;;;7.90;67.50;;;8.07;51.79;94657.88;4997311;28;20455;-56
2021/12/25 00:12:11;;;;;;;1.90;1.80;;;8.00;67.10;;;8.17;51.10;94658.78;4997245;28;20490;-57
2021/12/25 00:14:38;;;;;;;1.50;1.40;;;8.10;66.80;;;8.28;51.40;94664.91;5003709;28;20458;-59
2021/12/25 00:17:07;;;;;;;2.60;1.30;;;8.20;66.80;;;8.37;51.41;94664.09;4999624;28;20555;-57
2021/12/25 00:19:34;;;;;;;1.50;1.40;;;8.40;66.80;;;8.49;50.98;94680.59;5001432;28;20477;-56
2021/12/25 00:22:01;;;;;;;2.17;1.77;;;8.40;66.30;;;8.57;50.51;94675.53;5004528;28;20473;-57
2021/12/25 00:24:29;;;;;;;9.43;5.37;;;8.50;66.10;;;8.65;50.30;94704.53;4995079;28;20454;-60
2021/12/25 00:27:02;;;;;;;33.47;16.90;;;8.60;65.50;;;8.54;49.21;94702.84;5003919;28;20478;-57
2021/12/25 00:29:51;;;;;;;30.67;14.40;;;8.50;64.00;;;8.19;50.12;94704.00;4994012;28;20451;-58
2021/12/25 00:35:06;;;;;;;34.10;16.10;;;8.10;64.30;;;7.50;50.89;94704.50;5003742;28;20446;-57
2021/12/25 00:37:33;;;;;;;35.07;19.20;;;7.70;64.60;;;7.23;51.67;94711.00;5003431;28;20560;-59
2021/12/25 00:40:00;;;;;;;29.30;16.33;;;7.50;65.80;;;6.95;51.40;94707.97;5002556;28;20458;-56
2021/12/25 00:42:28;;;;;;;33.50;16.23;;;7.20;65.90;;;6.73;51.78;94724.53;4999673;28;20477;-58
2021/12/25 00:44:55;;;;;;;46.00;23.70;;;6.90;66.70;;;6.59;52.76;94716.94;5004857;28;20461;-58
2021/12/25 00:47:23;;;;;;;35.97;19.30;;;6.80;67.20;;;6.48;52.58;94704.72;5001535;28;20506;-57
2021/12/25 00:49:51;;;;;;;32.70;17.47;;;6.70;67.90;;;6.35;53.15;94710.06;5002653;28;20835;-58
2021/12/25 00:52:18;;;;;;;39.47;18.23;;;6.50;68.60;;;6.21;53.18;94702.44;5000067;28;20482;-58
2021/12/25 00:54:45;;;;;;;30.00;16.63;;;6.40;68.80;;;6.08;53.35;94705.97;5007024;28;20892;-56
2021/12/25 00:57:13;;;;;;;31.53;15.80;;;6.30;68.90;;;5.99;53.61;94711.06;4996898;28;20485;-57
2021/12/25 00:59:40;;;;;;;27.63;14.73;;;6.10;69.70;;;5.95;53.61;94701.75;5001321;28;20540;-58
2021/12/25 01:02:07;;;;;;;20.93;13.80;;;6.10;70.10;;;5.85;54.00;94705.06;5000494;28;20482;-57
2021/12/25 01:04:36;;;;;;;26.07;14.77;;;6.00;69.90;;;5.72;53.48;94705.16;4999437;28;20985;-57
2021/12/25 01:07:03;;;;;;;26.13;14.63;;;5.90;70.20;;;5.60;54.13;94702.63;5005070;28;20994;-57
2021/12/25 01:09:31;;;;;;;28.27;14.97;;;5.80;71.00;;;5.50;54.67;94708.53;5006156;28;20466;-58
2021/12/25 01:11:58;;;;;;;26.73;14.83;;;5.70;72.10;;;5.40;54.97;94702.31;5002649;28;20481;-57
2021/12/25 01:14:33;;;;;;;21.80;13.07;;;5.50;72.30;;;5.34;54.85;94714.03;5001203;28;20821;-56
2021/12/25 01:17:40;;;;;;;21.70;13.10;;;5.50;72.30;;;5.30;55.15;94703.94;4996672;28;20575;-56
2021/12/25 01:20:30;;;;;;;37.90;13.57;;;5.50;72.40;;;5.28;55.05;94698.81;4999603;28;20530;-57
2021/12/25 01:26:11;;;;;;;23.90;12.40;;;5.40;73.60;;;5.15;55.57;94692.84;4992569;28;20484;-59
2021/12/25 01:29:16;;;;;;;30.00;13.47;;;5.30;73.50;;;5.10;55.47;94700.19;5007291;28;20453;-60
2021/12/25 01:31:49;;;;;;;24.30;13.33;;;5.20;73.60;;;5.06;55.88;94698.72;5005032;28;20592;-55
2021/12/25 01:34:50;;;;;;;22.33;11.83;;;5.20;74.20;;;5.08;56.16;94691.63;5004321;28;20529;-57
2021/12/25 01:37:19;;;;;;;17.97;10.63;;;5.20;74.60;;;5.11;56.16;94700.06;5003499;28;20495;-57
2021/12/25 01:39:57;;;;;;;20.90;11.97;;;5.20;74.90;;;5.11;55.84;94694.88;5005441;28;20823;-57
2021/12/25 01:48:00;;;;;;;20.20;9.87;;;5.30;74.70;;;5.09;56.29;94683.69;4967979;28;21007;-58
2021/12/25 01:50:28;;;;;;;13.33;9.37;;;5.20;75.20;;;5.10;56.25;94684.53;5007830;28;20449;-57
2021/12/25 01:52:58;;;;;;;18.83;10.77;;;5.20;75.20;;;5.11;56.29;94680.97;5005121;28;20467;-56
2021/12/25 01:55:27;;;;;;;13.43;9.57;;;5.20;75.60;;;5.12;56.20;94687.88;5006942;28;20804;-57
2021/12/25 01:57:54;;;;;;;15.63;10.03;;;5.20;75.50;;;5.12;56.27;94685.25;5005447;28;20506;-57
2021/12/25 02:00:24;;;;;;;18.17;11.10;;;5.20;75.40;;;5.12;56.42;94677.44;5008008;28;20485;-57
2021/12/25 02:02:51;;;;;;;23.30;10.30;;;5.20;75.90;;;5.14;56.72;94678.16;5003875;28;20471;-55
2021/12/25 02:05:19;;;;;;;15.00;9.37;;;5.20;76.30;;;5.16;56.34;94673.69;4996910;28;20454;-57
2021/12/25 02:07:46;;;;;;;12.50;7.93;;;5.30;75.60;;;5.16;56.56;94663.25;5000005;28;20548;-58
2021/12/25 02:10:16;;;;;;;9.70;7.40;;;5.20;75.90;;;5.19;56.64;94673.44;5001025;28;20823;-57
2021/12/25 02:12:43;;;;;;;19.40;8.30;;;5.30;76.30;;;5.27;56.73;94670.28;5003062;28;20883;-57
2021/12/25 02:15:15;;;;;;;11.33;8.30;;;5.30;76.30;;;5.33;56.60;94665.44;5004871;28;20468;-57
2021/12/25 02:18:00;;;;;;;14.80;8.80;;;5.40;76.80;;;5.41;56.48;94669.25;5002728;28;20573;-58
2021/12/25 02:20:34;;;;;;;16.10;10.63;;;5.50;76.50;;;5.44;56.25;94659.44;5001841;28;20438;-56
2021/12/25 02:23:02;;;;;;;16.37;9.67;;;5.60;76.50;;;5.51;56.77;94663.22;5003327;28;20546;-56
2021/12/25 02:25:29;;;;;;;12.77;7.67;;;5.60;77.10;;;5.56;56.39;94668.09;4999368;28;20488;-56
2021/12/25 02:27:56;;;;;;;13.20;8.90;;;5.70;76.40;;;5.61;56.72;94667.75;5002162;28;20481;-57
2021/12/25 02:30:24;;;;;;;19.20;10.13;;;5.70;76.70;;;5.63;56.08;94660.66;4997177;28;20941;-59
2021/12/25 02:32:51;;;;;;;16.00;9.37;;;5.70;76.10;;;5.65;56.15;94656.16;5001806;28;20484;-57
2021/12/25 02:35:18;;;;;;;14.43;9.80;;;5.70;75.80;;;5.67;56.03;94662.09;4997607;28;20459;-58
2021/12/25 02:37:47;;;;;;;25.63;10.10;;;5.70;76.00;;;5.68;56.01;94675.00;5003045;28;20547;-59
2021/12/25 02:40:15;;;;;;;18.20;10.53;;;5.80;75.80;;;5.67;56.24;94664.69;5004646;28;20953;-56
2021/12/25 02:42:43;;;;;;;18.87;10.43;;;5.80;76.40;;;5.64;56.25;94663.16;5002567;28;20475;-57
2021/12/25 02:45:16;;;;;;;19.40;11.93;;;5.80;76.20;;;5.67;56.25;94664.69;5002041;28;20943;-56
2021/12/25 02:47:44;;;;;;;16.00;11.07;;;5.80;76.10;;;5.69;56.21;94662.81;5002960;28;20478;-55
2021/12/25 02:50:11;;;;;;;16.33;10.53;;;5.80;76.30;;;5.70;56.34;94654.88;5006361;28;20554;-55
2021/12/25 02:52:38;;;;;;;15.30;11.50;;;5.80;76.40;;;5.71;56.48;94666.97;4998769;28;20474;-55
2021/12/25 02:55:08;;;;;;;15.60;9.43;;;5.80;76.40;;;5.71;56.30;94656.53;5006892;28;20453;-57
2021/12/25 02:57:35;;;;;;;22.27;11.67;;;5.80;76.20;;;5.71;56.61;94653.91;5002259;28;20489;-57
2021/12/25 03:00:07;;;;;;;19.60;10.57;;;5.80;76.50;;;5.72;56.27;94657.38;5004627;28;20457;-57
2021/12/25 03:02:34;;;;;;;18.37;10.40;;;5.80;76.20;;;5.72;56.13;94652.97;5000926;28;21024;-58
2021/12/25 03:05:02;;;;;;;18.60;10.80;;;5.80;76.30;;;5.74;56.55;94652.84;5002665;28;20508;-56
2021/12/25 03:07:29;;;;;;;15.10;9.73;;;5.80;76.60;;;5.77;56.10;94649.19;5001225;28;20561;-57
2021/12/25 03:09:56;;;;;;;17.53;9.77;;;5.90;76.50;;;5.80;56.66;94662.00;4998908;28;21002;-58
2021/12/25 03:12:32;;;;;;;18.23;9.50;;;5.90;77.10;;;5.83;56.17;94664.38;5000104;28;20480;-57
2021/12/25 03:15:07;;;;;;;17.97;10.27;;;5.90;76.60;;;5.86;56.53;94658.94;4998456;28;20462;-57
2021/12/25 03:17:34;;;;;;;15.93;10.10;;;5.90;76.40;;;5.87;56.00;94663.19;4999939;28;20868;-58
2021/12/25 03:20:01;;;;;;;17.30;10.07;;;5.90;76.00;;;5.85;55.99;94663.31;4995479;28;20813;-58
2021/12/25 03:22:29;;;;;;;16.50;9.77;;;5.90;76.30;;;5.86;56.62;94664.16;4995674;28;20474;-57
2021/12/25 03:24:57;;;;;;;26.60;10.13;;;6.00;76.60;;;5.86;56.30;94670.19;5007346;28;20453;-58
2021/12/25 03:27:25;;;;;;;18.20;9.90;;;6.00;76.60;;;5.85;56.35;94670.31;5002242;28;20573;-56
2021/12/25 03:29:53;;;;;;;18.93;10.20;;;6.00;76.60;;;5.85;56.52;94668.53;5003220;28;20454;-56
2021/12/25 03:32:20;;;;;;;19.37;10.80;;;6.00;76.80;;;5.87;57.18;94657.97;5001858;28;20467;-56
2021/12/25 03:34:47;;;;;;;19.70;9.90;;;6.00;77.50;;;5.87;56.46;94669.25;5004196;28;20460;-56
2021/12/25 03:37:14;;;;;;;19.63;11.30;;;6.00;77.00;;;5.87;56.56;94668.41;4996430;28;20494;-57
2021/12/25 03:39:42;;;;;;;18.63;10.13;;;6.00;77.00;;;5.90;56.71;94668.19;5001535;28;20462;-57
2021/12/25 03:42:10;;;;;;;16.70;9.97;;;6.00;77.00;;;5.92;56.22;94646.25;4999733;28;20543;-57
2021/12/25 03:44:38;;;;;;;19.60;10.67;;;6.00;77.00;;;5.95;56.45;94654.78;4999170;28;20450;-57
2021/12/25 03:47:13;;;;;;;14.00;9.40;;;6.00;77.00;;;5.97;55.83;94651.16;5004257;28;20505;-56
2021/12/25 03:58:01;;;;;;;14.10;8.57;;;6.20;76.80;;;6.18;55.92;94661.72;4998604;28;20624;-59
2021/12/25 04:00:32;;;;;;;14.13;8.50;;;6.30;77.00;;;6.22;56.27;94662.31;4996017;28;20485;-60
2021/12/25 04:03:03;;;;;;;18.10;8.87;;;6.30;76.60;;;6.26;56.38;94658.53;4998465;28;20926;-57
2021/12/25 04:05:33;;;;;;;15.53;9.33;;;6.30;76.90;;;6.31;55.97;94673.84;4993874;28;20582;-56
2021/12/25 04:08:04;;;;;;;26.47;13.07;;;6.30;77.00;;;6.35;55.82;94672.63;4999636;28;20509;-57
2021/12/25 04:10:36;;;;;;;21.83;12.50;;;6.40;76.60;;;6.36;56.06;94666.47;4998527;28;20520;-58
2021/12/25 04:13:04;;;;;;;26.57;12.50;;;6.40;76.30;;;6.35;55.71;94663.03;4998969;28;20725;-58
2021/12/25 04:15:33;;;;;;;15.40;9.70;;;6.40;76.30;;;6.33;56.00;94659.69;4998192;28;20469;-57
2021/12/25 04:18:01;;;;;;;19.70;10.73;;;6.40;76.30;;;6.35;55.81;94656.97;5001593;28;20498;-57
2021/12/25 04:20:29;;;;;;;13.63;8.10;;;6.40;76.30;;;6.37;56.39;94657.69;5001382;28;20457;-56
2021/12/25 04:23:00;;;;;;;10.20;5.90;;;6.40;76.60;;;6.42;55.96;94674.66;5005129;28;20572;-57
2021/12/25 04:25:30;;;;;;;2.37;2.13;;;6.50;77.10;;;6.50;56.46;94676.66;5001492;28;20454;-57
2021/12/25 04:28:03;;;;;;;1.87;1.77;;;6.50;77.50;;;6.65;56.38;94672.03;4996102;28;20477;-58
2021/12/25 04:30:41;;;;;;;1.40;1.30;;;6.60;77.90;;;6.84;56.07;94662.72;4998055;28;20443;-57
2021/12/25 05:03:47;;;;;;;19.17;12.50;;;7.20;73.50;;;6.95;54.62;94678.38;5001914;28;20826;-56
2021/12/25 05:06:14;;;;;;;23.60;12.10;;;7.10;73.90;;;6.91;55.46;94687.41;5006181;28;21025;-57
2021/12/25 05:08:42;;;;;;;19.30;11.80;;;7.00;75.00;;;6.92;55.13;94691.69;5005136;28;20856;-58
2021/12/25 05:11:10;;;;;;;18.77;11.60;;;7.00;74.50;;;6.85;54.84;94695.75;5005494;28;20506;-58
2021/12/25 05:13:39;;;;;;;16.33;10.87;;;6.90;74.80;;;6.73;55.37;94703.63;5005393;28;20454;-58
2021/12/25 05:16:07;;;;;;;22.00;13.23;;;6.80;75.00;;;6.60;55.23;94708.97;5004016;28;20478;-60
2021/12/25 05:18:37;;;;;;;22.70;12.23;;;6.80;75.10;;;6.46;55.39;94710.06;5007607;28;20925;-57
2021/12/25 05:21:08;;;;;;;23.60;10.67;;;6.60;75.00;;;6.32;55.78;94699.84;5010508;28;20470;-56
2021/12/25 05:23:36;;;;;;;19.80;10.90;;;6.50;75.90;;;6.23;55.97;94716.22;4997971;28;20458;-58
2021/12/25 05:26:03;;;;;;;19.93;11.87;;;6.40;75.80;;;6.16;55.95;94725.47;5002106;28;20477;-57
2021/12/25 05:28:39;;;;;;;17.23;12.47;;;6.40;76.30;;;6.14;56.16;94715.13;5008910;28;20462;-58
2021/12/25 05:31:06;;;;;;;20.27;11.60;;;6.30;76.70;;;6.14;56.09;94709.09;5006173;28;20479;-57
2021/12/25 05:33:34;;;;;;;14.60;9.20;;;6.20;76.60;;;6.09;56.72;94707.66;5004191;28;20461;-57
2021/12/25 05:36:01;;;;;;;22.23;9.27;;;6.20;77.20;;;6.06;56.40;94717.50;4998500;28;21016;-57
2021/12/25 05:38:30;;;;;;;14.37;10.13;;;6.20;77.20;;;6.03;56.66;94718.56;4998337;28;20486;-57
2021/12/25 05:40:57;;;;;;;17.90;9.97;;;6.20;77.20;;;6.04;56.99;94722.84;4994974;28;20466;-57
2021/12/25 05:43:25;;;;;;;20.60;10.70;;;6.10;77.30;;;6.05;57.16;94716.66;4999929;28;20453;-57
2021/12/25 05:45:52;;;;;;;15.73;9.27;;;6.20;77.80;;;6.06;56.95;94715.72;5000145;28;20970;-59
2021/12/25 05:48:21;;;;;;;21.63;10.83;;;6.20;78.00;;;6.08;56.87;94721.63;5004266;28;20455;-58
2021/12/25 05:50:49;;;;;;;17.17;10.30;;;6.10;77.60;;;6.11;56.69;94731.03;5003136;28;20847;-58
2021/12/25 05:53:16;;;;;;;16.37;9.90;;;6.20;77.60;;;6.10;56.83;94727.59;5002713;28;20455;-58
2021/12/25 05:55:45;;;;;;;19.67;9.87;;;6.20;77.90;;;6.12;56.63;94739.69;5004022;28;20979;-57
2021/12/25 05:58:13;;;;;;;16.00;9.33;;;6.20;77.70;;;6.12;56.97;94750.13;5002728;28;20517;-57
2021/12/25 06:00:40;;;;;;;18.37;9.93;;;6.20;78.00;;;6.09;56.90;94757.25;4999823;28;20451;-59
2021/12/25 06:03:08;;;;;;;22.70;10.30;;;6.20;78.00;;;6.07;56.69;94753.09;4995594;28;20451;-58
2021/12/25 06:05:35;;;;;;;17.80;9.60;;;6.20;78.00;;;6.07;56.87;94730.44;5001007;28;20458;-57
2021/12/25 06:08:03;;;;;;;15.83;9.43;;;6.20;78.30;;;6.06;57.04;94726.16;4999149;28;20469;-57
2021/12/25 06:10:31;;;;;;;18.40;10.23;;;6.20;78.00;;;6.06;56.95;94739.22;5005786;28;20576;-57
2021/12/25 06:13:00;;;;;;;11.70;9.03;;;6.20;78.40;;;6.09;57.07;94731.16;5001703;28;21034;-58
2021/12/25 06:15:28;;;;;;;13.60;9.70;;;6.20;78.60;;;6.12;57.01;94739.69;5005372;28;20962;-57
2021/12/25 06:17:55;;;;;;;20.03;10.57;;;6.20;78.30;;;6.15;57.47;94755.97;5002767;28;20496;-58
2021/12/25 06:20:23;;;;;;;11.90;8.77;;;6.20;78.50;;;6.19;57.21;94746.13;5003806;28;20447;-56
2021/12/25 06:22:50;;;;;;;15.37;9.77;;;6.30;78.50;;;6.22;56.64;94751.94;4997090;28;20470;-57
2021/12/25 06:25:17;;;;;;;13.80;9.57;;;6.30;78.30;;;6.24;57.15;94743.97;5004920;28;20887;-59
2021/12/25 06:27:45;;;;;;;16.80;11.07;;;6.30;78.80;;;6.25;56.94;94750.88;4997241;28;21062;-57
2021/12/25 06:30:14;;;;;;;14.23;9.50;;;6.40;78.10;;;6.25;56.33;94750.88;4993997;28;20849;-59
2021/12/25 06:32:41;;;;;;;21.93;13.30;;;6.30;77.70;;;6.24;57.00;94750.06;4997212;28;20525;-59
2021/12/25 06:35:09;;;;;;;18.30;9.20;;;6.30;78.10;;;6.26;56.71;94761.22;4999250;28;20457;-57
2021/12/25 06:37:37;;;;;;;23.03;11.03;;;6.40;78.20;;;6.28;56.47;94756.69;5000561;28;20517;-59
2021/12/25 06:40:07;;;;;;;15.10;9.70;;;6.40;78.20;;;6.31;56.95;94757.44;5002636;28;20553;-56
2021/12/25 06:42:34;;;;;;;14.23;9.07;;;6.40;78.20;;;6.35;56.90;94772.75;5001542;28;20532;-56
2021/12/25 06:45:02;;;;;;;20.43;13.73;;;6.40;78.20;;;6.42;56.84;94783.56;5003858;28;20454;-58
2021/12/25 06:47:30;;;;;;;19.70;11.10;;;6.50;78.40;;;6.47;56.73;94763.13;5003901;28;20489;-57
2021/12/25 06:49:58;;;;;;;14.10;9.93;;;6.50;78.30;;;6.53;57.02;94772.28;4999933;28;20454;-56
2021/12/25 06:52:25;;;;;;;17.80;11.00;;;6.60;78.70;;;6.58;56.35;94772.75;4999530;28;20467;-59
2021/12/25 06:54:52;;;;;;;12.60;9.00;;;6.70;78.20;;;6.62;56.28;94769.78;4998078;28;20876;-58
2021/12/25 06:57:20;;;;;;;17.30;10.53;;;6.70;77.80;;;6.66;56.55;94765.13;4999858;28;20527;-58
2021/12/25 06:59:47;;;;;;;18.57;9.57;;;6.70;77.90;;;6.70;56.21;94769.19;5001919;28;20462;-57
2021/12/25 07:02:15;;;;;;;23.90;11.10;;;6.70;77.70;;;6.77;56.74;94778.22;4999594;28;20469;-57
2021/12/25 07:04:44;;;;;;;18.77;12.90;;;6.80;77.80;;;6.90;56.24;94778.09;4999703;28;20811;-58
2021/12/25 07:07:12;;;;;;;20.40;12.73;;;6.90;77.90;;;7.15;55.79;94794.47;5002905;28;20472;-56
2021/12/25 07:09:40;;;;;;;17.53;12.73;;;7.10;77.70;;;7.45;55.45;94793.84;5001785;28;20457;-60
2021/12/25 07:12:09;;;;;;;14.03;10.40;;;7.40;77.30;;;7.66;55.10;94788.66;5002738;28;20478;-56
2021/12/25 07:14:36;;;;;;;17.83;10.20;;;7.70;76.40;;;7.74;54.80;94788.03;4999995;28;20959;-56
2021/12/25 07:17:04;;;;;;;14.53;9.00;;;7.80;75.70;;;7.78;54.28;94780.78;5001141;28;20470;-56
2021/12/25 07:19:31;;;;;;;16.83;9.50;;;7.80;74.80;;;7.80;54.47;94787.53;4996882;28;21068;-58
2021/12/25 07:22:00;;;;;;;19.90;10.33;;;7.80;74.60;;;7.83;54.45;94782.06;4999808;28;20474;-58
2021/12/25 07:24:27;;;;;;;17.13;9.60;;;7.90;74.70;;;7.91;54.04;94778.81;5001942;28;20972;-57
2021/12/25 07:26:55;;;;;;;16.97;10.13;;;7.90;74.60;;;7.99;53.96;94786.84;5002658;28;20858;-58
2021/12/25 07:29:22;;;;;;;19.93;10.00;;;8.00;74.50;;;8.06;53.90;94795.88;5004528;28;20451;-59
2021/12/25 07:31:49;;;;;;;19.43;9.90;;;8.10;74.20;;;8.13;53.73;94790.13;5000534;28;20890;-57
2021/12/25 07:34:17;;;;;;;21.33;9.90;;;8.20;74.10;;;8.21;54.07;94806.91;5006302;28;20461;-59
2021/12/25 07:36:44;;;;;;;27.90;11.40;;;8.20;73.80;;;8.25;53.25;94808.28;4997742;28;20992;-59
2021/12/25 07:39:13;;;;;;;21.50;12.63;;;8.30;73.70;;;8.28;53.84;94790.66;5006452;28;20486;-58
2021/12/25 07:41:40;;;;;;;22.43;13.87;;;8.30;73.40;;;8.30;53.35;94788.75;5001408;28;20469;-58
2021/12/25 07:44:08;;;;;;;26.97;13.30;;;8.30;73.00;;;8.37;53.32;94798.59;5000557;28;21034;-59
2021/12/25 07:46:36;;;;;;;20.60;13.07;;;8.40;73.20;;;8.53;53.03;94792.09;5003402;28;20483;-57
2021/12/25 07:49:04;;;;;;;33.50;18.93;;;8.50;72.90;;;8.78;52.34;94789.06;5000437;28;20553;-58
2021/12/25 07:51:32;;;;;;;36.23;19.57;;;8.80;72.40;;;9.29;52.19;94796.97;5003937;28;20560;-57
2021/12/25 07:53:59;;;;;;;31.90;18.97;;;9.20;71.90;;;9.64;51.30;94804.38;5000439;28;20453;-58
2021/12/25 07:56:28;;;;;;;34.77;22.40;;;9.50;70.60;;;9.81;50.50;94796.81;5001822;28;20469;-57
2021/12/25 07:58:55;;;;;;;42.80;22.40;;;9.70;69.30;;;9.89;50.26;94802.19;4999271;28;21033;-58
2021/12/25 08:01:22;;;;;;;30.10;16.40;;;9.80;68.50;;;9.92;50.14;94803.72;5000305;28;20466;-60
2021/12/25 08:03:50;;;;;;;27.00;17.07;;;9.90;68.00;;;9.90;50.20;94806.50;4998069;28;20466;-57
2021/12/25 08:06:17;;;;;;;30.40;18.17;;;9.90;67.70;;;10.02;50.21;94810.66;4996257;28;21042;-57
2021/12/25 08:08:44;;;;;;;31.00;19.33;;;10.00;67.00;;;10.35;49.94;94811.22;4997840;28;20459;-57
2021/12/25 08:11:13;;;;;;;23.83;14.40;;;10.30;67.00;;;10.77;49.31;94813.47;5001959;28;20477;-60
2021/12/25 08:13:42;;;;;;;34.83;16.53;;;10.60;66.30;;;11.00;48.30;94800.00;5004080;28;20745;-56
2021/12/25 08:16:09;;;;;;;29.87;15.17;;;10.80;64.30;;;11.07;47.93;94811.59;5002307;28;20506;-61
2021/12/25 08:18:37;;;;;;;25.83;15.00;;;10.90;63.70;;;11.02;48.27;94803.31;5001996;28;20490;-57
2021/12/25 08:21:04;;;;;;;22.87;14.33;;;10.90;63.70;;;11.06;48.32;94788.88;5001383;28;20474;-56
2021/12/25 08:23:33;;;;;;;13.37;9.80;;;10.90;63.70;;;11.34;47.91;94807.34;4994727;28;20531;-57
2021/12/25 08:26:00;;;;;;;26.37;13.97;;;11.20;63.90;;;11.91;47.60;94812.38;4995984;28;20517;-56
2021/12/25 08:28:27;;;;;;;21.10;12.47;;;11.60;63.30;;;12.37;46.42;94801.81;4993966;28;20508;-58
2021/12/25 08:30:56;;;;;;;15.27;8.57;;;12.00;62.20;;;12.53;45.40;94804.56;5004970;28;20450;-59
2021/12/25 08:33:24;;;;;;;10.27;8.10;;;12.20;59.80;;;12.50;45.13;94802.25;4999046;28;20465;-61
2021/12/25 08:35:51;;;;;;;9.50;6.63;;;12.30;58.80;;;12.66;44.90;94798.06;4995769;28;20462;-60
2021/12/25 08:38:18;;;;;;;14.93;7.13;;;12.50;58.30;;;12.75;45.01;94805.06;5000494;28;20493;-59
2021/12/25 08:40:46;;;;;;;15.13;8.60;;;12.50;58.70;;;12.69;44.70;94795.13;5000686;28;20454;-58
2021/12/25 08:43:16;;;;;;;14.33;9.50;;;12.50;58.00;;;12.54;44.98;94795.66;5002815;28;20462;-59
2021/12/25 08:45:45;;;;;;;17.57;10.20;;;12.40;57.90;;;12.58;45.07;94784.81;5001801;28;20492;-57
2021/12/25 08:48:16;;;;;;;23.53;10.70;;;12.40;58.20;;;12.76;46.12;94790.03;5003097;28;20536;-59
2021/12/25 08:50:47;;;;;;;12.20;9.53;;;12.50;60.00;;;12.76;44.90;94790.88;4994482;28;20521;-60
2021/12/25 08:53:15;;;;;;;26.33;12.10;;;12.60;59.10;;;12.72;45.19;94786.91;4996520;28;20509;-61
2021/12/25 08:55:42;;;;;;;29.23;16.57;;;12.70;58.50;;;12.98;45.15;94781.63;4995857;28;20453;-59
2021/12/25 08:58:10;;;;;;;22.03;14.80;;;12.90;58.60;;;13.49;44.66;94767.66;4997792;28;20935;-60
2021/12/25 09:00:38;;;;;;;30.33;14.87;;;13.20;58.30;;;13.92;43.30;94769.25;5002783;28;21031;-59
2021/12/25 09:03:05;;;;;;;25.53;14.10;;;13.60;56.80;;;14.16;42.71;94781.69;5003479;28;20824;-60
2021/12/25 09:05:34;;;;;;;24.00;13.80;;;13.80;55.40;;;14.22;42.77;94763.47;5005007;28;20770;-61
2021/12/25 09:08:02;;;;;;;22.87;13.27;;;13.90;55.00;;;14.32;42.29;94764.16;5003113;28;20459;-58
2021/12/25 09:10:30;;;;;;;18.57;12.40;;;14.10;54.90;;;14.45;42.62;94759.19;5004887;28;20559;-59
2021/12/25 09:12:58;;;;;;;16.50;12.00;;;14.10;55.10;;;14.62;42.15;94754.72;4991551;28;21065;-59
2021/12/25 09:15:25;;;;;;;22.60;13.40;;;14.30;55.20;;;14.82;42.34;94754.38;4991258;28;20462;-57
2021/12/25 09:17:52;;;;;;;23.90;12.87;;;14.50;55.00;;;14.89;41.74;94758.00;4998758;28;20987;-60
2021/12/25 09:20:21;;;;;;;23.37;13.93;;;14.60;54.30;;;14.84;41.78;94757.66;5001959;28;20465;-56
2021/12/25 09:22:50;;;;;;;22.60;14.00;;;14.60;53.60;;;14.79;41.90;94752.06;5001006;28;20468;-59
2021/12/25 09:25:17;;;;;;;26.90;13.77;;;14.60;53.90;;;14.78;40.66;94738.00;4997104;28;20453;-60
2021/12/25 09:27:45;;;;;;;23.33;12.70;;;14.60;51.90;;;14.72;40.65;94732.53;5004283;28;20469;-58
2021/12/25 09:30:13;;;;;;;27.90;15.20;;;14.60;52.30;;;14.53;41.56;94745.09;4999985;28;20461;-56
2021/12/25 09:32:40;;;;;;;25.53;13.17;;;14.40;53.00;;;14.29;42.04;94735.38;5003168;28;20474;-60
2021/12/25 09:35:08;;;;;;;23.80;11.93;;;14.20;53.60;;;14.17;41.97;94737.53;5003643;28;20951;-56
2021/12/25 09:37:36;;;;;;;19.80;13.20;;;14.00;53.40;;;14.08;42.16;94736.72;5000553;28;20473;-57
2021/12/25 09:40:06;;;;;;;22.83;13.03;;;14.00;54.10;;;13.99;42.53;94719.19;5000445;28;21176;-59
2021/12/25 09:42:34;;;;;;;31.47;15.33;;;13.90;54.30;;;13.91;42.79;94725.31;4994360;28;20474;-61
2021/12/25 09:45:01;;;;;;;29.10;14.70;;;13.80;54.10;;;13.84;42.64;94723.47;5000799;28;20454;-60
2021/12/25 09:47:28;;;;;;;21.40;12.20;;;13.70;54.10;;;13.77;42.61;94713.56;5005282;28;20470;-56
2021/12/25 09:49:56;;;;;;;24.53;14.83;;;13.70;54.60;;;13.70;42.54;94711.72;4999121;28;20453;-60
2021/12/25 09:52:23;;;;;;;31.43;13.67;;;13.60;54.30;;;13.58;43.06;94705.91;5003014;28;20862;-56
2021/12/25 09:54:50;;;;;;;37.43;14.80;;;13.50;54.60;;;13.67;43.40;94704.13;5004477;28;20970;-60
2021/12/25 09:57:19;;;;;;;26.27;13.50;;;13.50;54.90;;;13.95;43.14;94708.09;4999725;28;20892;-58
2021/12/25 09:59:47;;;;;;;39.30;16.73;;;13.70;54.80;;;14.38;42.48;94715.06;4999580;28;20485;-57
2021/12/25 10:02:16;;;;;;;28.43;16.20;;;14.00;55.00;;;14.86;41.83;94695.59;5004725;28;20536;-60
2021/12/25 10:04:45;;;;;;;42.07;16.40;;;14.50;54.50;;;15.70;41.31;94695.03;4999124;28;20454;-61
2021/12/25 10:07:25;;;;;;;39.53;17.43;;;15.20;54.00;;;16.37;39.40;94698.03;5001892;28;20490;-60
2021/12/25 10:09:59;;;;;;;29.93;15.33;;;15.70;52.10;;;16.51;39.03;94691.94;5001119;28;20460;-60
2021/12/25 10:12:33;;;;;;;33.80;17.97;;;16.00;51.00;;;16.27;38.99;94690.34;5001559;28;20524;-60
2021/12/25 10:15:00;;;;;;;30.50;16.27;;;16.00;50.30;;;15.93;39.45;94688.97;5007078;28;20525;-61
2021/12/25 10:17:29;;;;;;;30.10;16.37;;;15.80;50.10;;;15.59;38.49;94684.84;5002867;28;21042;-57
2021/12/25 10:20:11;;;;;;;25.93;14.37;;;15.50;49.30;;;15.29;39.91;94687.34;5008350;28;20641;-60
2021/12/25 10:23:07;;;;;;;24.13;13.20;;;15.20;50.60;;;15.03;40.23;94683.13;5005282;28;20556;-58
2021/12/25 10:25:38;;;;;;;27.80;10.43;;;14.90;50.40;;;14.81;40.35;94678.56;5007228;28;20922;-62
2021/12/25 10:28:08;;;;;;;25.70;14.80;;;14.70;50.80;;;14.72;40.28;94666.34;5000257;28;20461;-57
2021/12/25 10:30:47;;;;;;;22.57;13.80;;;14.60;51.20;;;14.70;41.08;94662.06;5003535;28;20878;-57
2021/12/25 10:33:41;;;;;;;35.83;12.47;;;14.60;51.90;;;15.22;40.11;94667.81;5005033;28;20492;-62
2021/12/25 10:36:11;;;;;;;35.37;12.50;;;14.80;51.70;;;16.00;39.27;94663.34;4992509;28;20512;-61
2021/12/25 10:38:39;;;;;;;19.60;12.03;;;15.40;50.80;;;16.64;38.55;94667.44;5004604;28;20486;-57
2021/12/25 10:41:19;;;;;;;27.63;13.30;;;15.90;50.70;;;17.58;37.09;94664.13;5003528;28;20477;-57
2021/12/25 10:43:52;;;;;;;25.50;13.47;;;16.80;49.10;;;18.77;35.32;94665.34;5004897;28;20456;-61
2021/12/25 10:46:19;;;;;;;28.77;12.20;;;17.80;47.70;;;20.02;34.95;94667.94;5002428;28;20472;-62
2021/12/25 10:48:47;;;;;;;21.53;11.40;;;18.90;47.10;;;21.23;32.89;94660.66;5003364;28;20484;-61
2021/12/25 10:51:26;;;;;;;25.80;13.90;;;20.00;45.50;;;22.15;31.21;94638.97;5000315;28;20485;-58
2021/12/25 10:53:54;;;;;;;14.67;10.87;;;21.10;43.10;;;22.73;31.26;94640.59;5007199;28;20465;-61
2021/12/25 10:56:21;;;;;;;22.20;12.53;;;21.80;42.40;;;22.80;30.88;94638.63;4999132;28;20539;-61
2021/12/25 10:58:50;;;;;;;21.50;12.80;;;22.10;41.00;;;22.48;30.76;94638.75;5002685;28;21001;-57
2021/12/25 11:01:18;;;;;;;29.33;14.30;;;22.00;40.00;;;22.07;31.53;94639.25;5004215;28;20477;-58
2021/12/25 11:03:46;;;;;;;26.97;16.17;;;21.90;40.60;;;22.29;31.00;94624.44;5001605;28;20470;-59
2021/12/25 11:06:16;;;;;;;24.03;14.60;;;22.00;40.20;;;22.97;31.08;94625.47;5004707;28;20469;-60
2021/12/25 11:08:44;;;;;;;38.37;18.33;;;22.40;40.70;;;23.90;30.17;94620.03;5008870;28;21057;-62
2021/12/25 11:11:13;;;;;;;33.97;17.90;;;23.10;39.80;;;24.54;28.42;94612.22;5001247;28;20486;-63
2021/12/25 11:13:42;;;;;;;39.67;17.07;;;23.80;38.30;;;24.96;28.23;94613.97;5002649;28;20458;-57
2021/12/25 11:16:26;;;;;;;53.03;18.47;;;24.30;37.60;;;25.21;26.86;94606.41;5002389;28;20489;-56
2021/12/25 11:19:04;;;;;;;45.70;19.83;;;24.70;36.10;;;25.53;26.73;94613.25;5004734;28;20509;-57